Time;durP1;ratioP1;P1;durP2;ratioP2;P2;SDS_P1;SDS_P2;PMS_P1;PMS_P2;Temp;Humidity;BMP_temperature;BMP_pressure;BME280_temperature;BME280_humidity;BME280_pressure;Samples;Min_cycle;Max_cycle;Signal;HPM_P1;HPM_P2
2022/01/23 00:00:00;;;;;;;100.97;46.30;;;;;;;-3.10;100.00;100899.75;5033285;28;20057;-80
2022/01/23 00:02:27;;;;;;;108.10;46.25;;;;;;;-3.12;100.00;100903.06;5033419;28;20454;-80
2022/01/23 00:04:53;;;;;;;106.05;44.63;;;;;;;-3.24;100.00;100888.31;5033340;28;20030;-81
2022/01/23 00:07:18;;;;;;;102.68;43.45;;;;;;;-3.16;100.00;100899.59;5015291;28;20132;-80
2022/01/23 00:09:44;;;;;;;95.35;40.95;;;;;;;-3.12;100.00;100888.66;5033153;28;20048;-80
2022/01/23 00:12:18;;;;;;;111.13;48.53;;;;;;;-3.05;100.00;100899.88;5015034;28;20124;-80
2022/01/23 00:17:35;;;;;;;104.55;47.72;;;;;;;-3.05;100.00;100882.03;5032894;28;20071;-80
2022/01/23 00:20:07;;;;;;;106.68;49.72;;;;;;;-3.08;100.00;100877.72;5014818;28;20466;-80
2022/01/23 00:22:44;;;;;;;103.55;48.63;;;;;;;-3.07;100.00;100858.22;5032690;28;20465;-80
2022/01/23 00:30:41;;;;;;;117.05;57.63;;;;;;;-2.99;100.00;100866.03;5032886;28;20575;-80
2022/01/23 00:33:07;;;;;;;118.03;59.58;;;;;;;-3.07;100.00;100861.63;5014576;28;20025;-80
2022/01/23 00:35:35;;;;;;;109.65;55.85;;;;;;;-2.98;100.00;100883.09;5014704;28;20112;-80
2022/01/23 00:38:02;;;;;;;113.78;58.58;;;;;;;-2.99;100.00;100874.59;5032641;28;20072;-80
2022/01/23 00:40:29;;;;;;;114.13;54.95;;;;;;;-3.05;100.00;100852.31;5014877;28;20025;-80
2022/01/23 00:42:55;;;;;;;108.97;54.05;;;;;;;-3.05;100.00;100854.00;4990548;28;20477;-80
2022/01/23 00:48:12;;;;;;;128.05;57.67;;;;;;;-2.85;100.00;100878.38;4951570;29;20043;-80
2022/01/23 00:50:40;;;;;;;122.28;56.55;;;;;;;-2.82;100.00;100883.56;4951750;28;20057;-80
2022/01/23 00:53:09;;;;;;;113.85;56.90;;;;;;;-2.84;100.00;100869.03;4935377;29;20127;-80
2022/01/23 00:55:36;;;;;;;122.63;56.95;;;;;;;-2.84;100.00;100872.44;4935710;29;20035;-80
2022/01/23 00:58:02;;;;;;;124.43;57.42;;;;;;;-2.70;100.00;100893.19;4935503;29;20031;-80
2022/01/23 01:00:27;;;;;;;120.80;55.08;;;;;;;-2.68;100.00;100893.25;4936464;29;20052;-80
2022/01/23 01:02:53;;;;;;;105.80;53.35;;;;;;;-2.66;100.00;100879.72;4916576;29;20035;-80
2022/01/23 01:05:18;;;;;;;113.60;53.67;;;;;;;-2.70;100.00;100884.69;4916359;29;20043;-80
2022/01/23 01:07:44;;;;;;;113.20;50.13;;;;;;;-2.60;100.00;100891.78;4916625;29;20050;-80
2022/01/23 01:10:16;;;;;;;101.00;46.33;;;;;;;-2.70;100.00;100874.50;4932272;29;20031;-80
2022/01/23 01:12:44;;;;;;;107.22;48.78;;;;;;;-2.57;100.00;100904.59;4916402;29;20040;-80
2022/01/23 01:33:57;;;;;;;114.55;52.88;;;;;;;-2.46;100.00;100890.44;4951330;29;20039;-80
2022/01/23 01:38:54;;;;;;;89.65;42.75;;;;;;;-2.42;100.00;100888.84;4951247;28;20058;-80
2022/01/23 01:41:20;;;;;;;80.30;40.17;;;;;;;-2.37;100.00;100905.97;4951111;29;20403;-80
2022/01/23 01:43:46;;;;;;;83.45;39.80;;;;;;;-2.43;100.00;100887.13;4951360;28;20535;-80
2022/01/23 01:46:12;;;;;;;76.93;37.47;;;;;;;-2.34;100.00;100892.44;4950947;29;20035;-80
2022/01/23 01:48:39;;;;;;;77.05;35.22;;;;;;;-2.31;100.00;100901.06;4935203;29;20050;-80
2022/01/23 01:51:08;;;;;;;57.63;29.60;;;;;;;-2.32;100.00;100890.78;4935072;29;20043;-80
2022/01/23 01:53:34;;;;;;;61.85;30.73;;;;;;;-2.29;100.00;100889.19;4951210;29;20027;-80
2022/01/23 01:55:59;;;;;;;60.17;31.83;;;;;;;-2.21;100.00;100897.03;4950931;29;20028;-80
2022/01/23 02:01:05;;;;;;;61.85;31.73;;;;;;;-2.33;100.00;100876.31;5030998;28;20107;-80
2022/01/23 02:08:48;;;;;;;55.58;26.85;;;;;;;-2.27;100.00;100868.81;5031770;28;20109;-80
2022/01/23 02:11:19;;;;;;;49.17;25.45;;;;;;;-2.29;100.00;100860.25;5016871;28;20030;-80
2022/01/23 02:13:48;;;;;;;50.50;24.98;;;;;;;-2.33;100.00;100859.31;5035380;28;20022;-80
2022/01/23 02:16:51;;;;;;;54.88;27.75;;;;;;;-2.27;100.00;100862.03;5017247;28;20026;-80
2022/01/23 02:25:14;;;;;;;67.38;27.40;;;;;;;-2.42;100.00;100866.75;5035253;28;20068;-80
2022/01/23 02:55:39;;;;;;;49.20;24.48;;;;;;;-2.07;100.00;100882.91;4934589;29;20031;-80
2022/01/23 02:58:05;;;;;;;50.90;24.40;;;;;;;-2.16;100.00;100866.53;4918824;29;20039;-79
2022/01/23 03:00:35;;;;;;;48.75;24.73;;;;;;;-2.25;100.00;100862.06;4934219;29;20051;-80
2022/01/23 03:03:08;;;;;;;52.25;26.38;;;;;;;-2.09;100.00;100906.69;4934706;29;20467;-80
2022/01/23 03:05:36;;;;;;;58.42;27.50;;;;;;;-2.10;100.00;100907.53;4934232;29;20079;-80
2022/01/23 03:08:31;;;;;;;57.95;28.13;;;;;;;-2.07;100.00;100910.13;4934519;29;20036;-80
2022/01/23 03:11:01;;;;;;;57.00;27.50;;;;;;;-2.04;100.00;100912.78;4934514;29;20047;-80
2022/01/23 03:13:45;;;;;;;66.43;30.30;;;;;;;-2.15;100.00;100879.34;4986260;28;20038;-80
2022/01/23 03:32:48;;;;;;;52.92;25.73;;;;;;;-1.98;100.00;100884.84;4918240;29;20064;-80
2022/01/23 03:35:16;;;;;;;77.35;32.40;;;;;;;-1.90;100.00;100898.63;4914829;29;20036;-80
2022/01/23 03:37:41;;;;;;;92.95;34.60;;;;;;;-1.98;100.00;100883.97;4914802;29;20047;-80
2022/01/23 03:40:07;;;;;;;100.90;37.80;;;;;;;-1.92;100.00;100896.91;4915034;29;20543;-80
2022/01/23 03:42:36;;;;;;;88.03;33.72;;;;;;;-1.85;100.00;100899.63;4914668;29;20052;-80
2022/01/23 03:47:38;;;;;;;56.55;27.85;;;;;;;-1.82;100.00;100914.16;4914815;29;20133;-80
2022/01/23 03:50:09;;;;;;;52.88;23.67;;;;;;;-1.86;100.00;100900.44;4914954;29;20044;-79
2022/01/23 03:52:34;;;;;;;;;;;;;;;-1.72;100.00;100910.16;4915176;29;20377;-80
2022/01/23 03:55:03;;;;;;;42.53;20.00;;;;;;;-1.82;100.00;100897.13;4948629;28;19958;-80
2022/01/23 03:57:28;;;;;;;40.45;20.02;;;;;;;-1.73;100.00;100903.28;4971705;28;20039;-80
2022/01/23 03:59:54;;;;;;;32.75;17.35;;;;;;;-1.80;100.00;100895.50;4982395;28;20050;-80
2022/01/23 04:02:20;;;;;;;36.20;17.65;;;;;;;-1.76;100.00;100904.94;4991102;28;20133;-80
2022/01/23 04:04:46;;;;;;;41.65;20.15;;;;;;;-1.72;100.00;100900.78;4975159;28;20030;-80
2022/01/23 04:07:20;;;;;;;58.05;25.05;;;;;;;-1.68;100.00;100909.38;4975053;28;20085;-80
2022/01/23 04:09:47;;;;;;;72.93;29.20;;;;;;;-1.71;100.00;100911.84;5008108;28;20599;-80
2022/01/23 04:15:41;;;;;;;71.55;28.88;;;;;;;-1.67;100.00;100899.19;5033142;28;20484;-80
2022/01/23 04:48:47;;;;;;;25.52;13.45;;;;;;;-1.44;100.00;100921.84;5032779;28;20084;-80
2022/01/23 05:04:18;;;;;;;31.95;14.65;;;;;;;-1.28;100.00;100963.09;5032289;28;20041;-80
2022/01/23 05:09:10;;;;;;;25.77;13.43;;;;;;;-1.27;100.00;100957.16;5032311;28;20044;-80
2022/01/23 05:11:41;;;;;;;26.77;14.18;;;;;;;-1.17;100.00;100960.81;5014182;28;20559;-80
2022/01/23 05:14:06;;;;;;;23.27;13.18;;;;;;;-1.18;100.00;100953.97;5032136;28;20477;-80
2022/01/23 05:16:32;;;;;;;23.05;13.68;;;;;;;-1.16;100.00;100956.53;5031645;28;20018;-80
2022/01/23 05:18:59;;;;;;;26.52;14.50;;;;;;;-1.11;100.00;100960.06;5014407;28;20029;-80
2022/01/23 05:21:50;;;;;;;25.58;14.80;;;;;;;-1.10;100.00;100944.75;5014154;28;20028;-79
2022/01/23 05:24:10;;;;;;;28.10;15.23;;;;;;;-1.04;100.00;100949.13;5031770;28;20029;-80
2022/01/23 05:26:42;;;;;;;23.42;14.52;;;;;;;-1.02;100.00;100943.22;5014355;28;20033;-80
2022/01/23 05:29:08;;;;;;;26.42;14.23;;;;;;;-1.07;100.00;100936.28;5013975;28;20029;-80
2022/01/23 05:31:33;;;;;;;25.35;13.85;;;;;;;-0.99;100.00;100954.34;5031868;28;20030;-79
2022/01/23 05:33:59;;;;;;;26.50;14.68;;;;;;;-1.07;100.00;100943.94;5031672;28;20469;-80
2022/01/23 05:36:24;;;;;;;20.48;12.32;;;;;;;-0.98;100.00;100956.06;5031579;28;20018;-80
2022/01/23 05:38:50;;;;;;;22.33;11.90;;;;;;;-0.98;100.00;100962.03;5014172;28;20388;-80
2022/01/23 05:41:15;;;;;;;22.45;12.18;;;;;;;-0.95;100.00;100969.78;5014136;28;20060;-79
2022/01/23 05:43:40;;;;;;;21.60;12.70;;;;;;;-0.95;100.00;100966.38;5031464;28;20302;-80
2022/01/23 05:46:06;;;;;;;19.35;11.57;;;;;;;-0.93;100.00;100970.66;5035499;28;20484;-79
2022/01/23 05:48:31;;;;;;;23.10;12.75;;;;;;;-0.95;100.00;100967.22;5035534;28;20032;-80
2022/01/23 05:50:56;;;;;;;22.23;12.32;;;;;;;-0.94;100.00;100968.09;5035799;28;20457;-80
2022/01/23 05:53:22;;;;;;;21.67;12.13;;;;;;;-0.89;100.00;100971.59;5017710;28;20033;-80
2022/01/23 05:55:48;;;;;;;25.00;13.13;;;;;;;-0.91;100.00;100968.16;5017943;28;20029;-80
2022/01/23 05:58:13;;;;;;;23.98;13.60;;;;;;;-0.89;100.00;100974.16;5035455;28;20484;-80
2022/01/23 06:00:39;;;;;;;23.92;13.38;;;;;;;-1.07;100.00;100933.72;5035051;28;20382;-80
2022/01/23 06:03:04;;;;;;;20.00;12.38;;;;;;;-0.89;100.00;100966.47;5035648;28;20029;-80
2022/01/23 06:05:30;;;;;;;23.85;12.65;;;;;;;-0.93;100.00;100963.00;5035328;28;20036;-80
2022/01/23 06:07:55;;;;;;;17.77;12.35;;;;;;;-0.92;100.00;100951.97;5017779;28;20026;-80
2022/01/23 06:10:24;;;;;;;27.95;14.63;;;;;;;-0.87;100.00;100964.84;5017677;28;20031;-79
2022/01/23 06:12:50;;;;;;;24.45;14.45;;;;;;;-0.93;100.00;100957.03;5035432;28;20091;-79
2022/01/23 06:15:16;;;;;;;30.35;15.38;;;;;;;-0.95;100.00;100951.88;5035515;28;20030;-80
2022/01/23 06:17:42;;;;;;;31.48;17.55;;;;;;;-0.87;100.00;100965.69;5035097;28;20021;-80
2022/01/23 06:20:10;;;;;;;29.77;15.07;;;;;;;-0.84;100.00;100970.88;5017506;28;20052;-80
2022/01/23 06:22:35;;;;;;;35.28;16.50;;;;;;;-0.89;100.00;100951.13;5034962;28;20025;-80
2022/01/23 06:25:01;;;;;;;32.42;16.25;;;;;;;-0.80;100.00;100969.22;5017291;28;20091;-79
2022/01/23 06:27:29;;;;;;;34.75;16.25;;;;;;;-0.77;100.00;100967.59;5034736;28;20032;-80
2022/01/23 06:29:55;;;;;;;34.72;16.73;;;;;;;-0.73;100.00;100963.41;5034933;28;20033;-80
2022/01/23 06:32:21;;;;;;;36.92;15.50;;;;;;;-0.73;100.00;100957.44;5017154;28;20066;-80
2022/01/23 06:34:46;;;;;;;33.75;17.05;;;;;;;-0.69;100.00;100964.34;5017145;28;20461;-80
2022/01/23 06:37:13;;;;;;;26.08;14.68;;;;;;;-0.72;100.00;100969.38;5034866;28;20045;-80
2022/01/23 06:39:38;;;;;;;24.42;14.07;;;;;;;-0.73;100.00;100965.13;5016701;28;20037;-80
2022/01/23 06:42:04;;;;;;;28.48;15.00;;;;;;;-0.74;100.00;100978.75;5034718;28;20091;-80
2022/01/23 06:44:29;;;;;;;28.05;15.02;;;;;;;-0.77;100.00;100975.28;5016860;28;20120;-80
2022/01/23 06:46:56;;;;;;;24.85;14.18;;;;;;;-0.81;100.00;100973.50;5034862;28;20500;-80
2022/01/23 06:49:22;;;;;;;26.40;14.23;;;;;;;-0.70;100.00;100989.06;5016992;28;20103;-79
2022/01/23 06:51:49;;;;;;;20.15;12.90;;;;;;;-0.81;100.00;100968.38;5034449;28;20030;-80
2022/01/23 06:54:14;;;;;;;20.25;12.35;;;;;;;-0.73;100.00;100989.00;5016186;28;20037;-80
2022/01/23 06:56:40;;;;;;;22.67;11.85;;;;;;;-0.74;100.00;100984.72;4996496;28;20022;-80
2022/01/23 06:59:05;;;;;;;20.10;11.65;;;;;;;-0.76;100.00;100976.13;5014641;28;20506;-80
2022/01/23 07:01:30;;;;;;;20.73;11.93;;;;;;;-0.67;100.00;100986.59;4997059;28;20426;-80
2022/01/23 07:03:56;;;;;;;17.27;10.93;;;;;;;-0.63;100.00;100982.38;5014589;28;20038;-79
2022/01/23 07:06:21;;;;;;;22.95;12.93;;;;;;;-0.61;100.00;100989.25;5014622;28;20033;-79
2022/01/23 07:08:47;;;;;;;39.47;20.70;;;;;;;-0.66;100.00;100983.19;4996654;28;20389;-80
2022/01/23 07:11:12;;;;;;;45.50;23.10;;;;;;;-0.60;100.00;101000.34;5014565;28;20022;-79
2022/01/23 07:13:37;;;;;;;45.13;24.27;;;;;;;-0.58;100.00;101004.69;5014288;28;20367;-80
2022/01/23 07:16:06;;;;;;;49.53;25.65;;;;;;;-0.51;100.00;101010.75;5014411;28;20084;-79
2022/01/23 07:18:31;;;;;;;44.38;23.70;;;;;;;-0.52;100.00;101003.94;4996544;28;20087;-79
2022/01/23 07:20:56;;;;;;;34.15;17.90;;;;;;;-0.55;100.00;100993.63;5014557;28;20038;-80
2022/01/23 07:23:23;;;;;;;35.03;18.55;;;;;;;-0.49;100.00;101001.44;5014236;28;20057;-79
2022/01/23 07:25:50;;;;;;;40.53;20.25;;;;;;;-0.38;100.00;101012.75;4995990;28;20125;-80
2022/01/23 07:28:19;;;;;;;42.50;20.38;;;;;;;-0.37;100.00;101008.50;5014877;28;20034;-80
2022/01/23 07:33:16;;;;;;;45.75;23.20;;;;;;;-0.31;100.00;101029.09;5013913;28;20065;-80
2022/01/23 07:35:41;;;;;;;47.83;24.42;;;;;;;-0.29;100.00;101030.84;5032190;28;20053;-79
2022/01/23 07:38:09;;;;;;;52.08;26.70;;;;;;;-0.21;100.00;101042.91;5033674;28;20021;-81
2022/01/23 07:40:35;;;;;;;50.47;27.17;;;;;;;-0.18;100.00;101045.56;5015589;28;20370;-79
2022/01/23 07:43:00;;;;;;;46.00;25.88;;;;;;;-0.18;100.00;101048.97;5028327;28;20105;-79
2022/01/23 07:45:26;;;;;;;47.97;27.05;;;;;;;-0.21;100.00;101046.38;5030031;28;20026;-80
2022/01/23 07:47:51;;;;;;;47.38;24.98;;;;;;;-0.23;100.00;101053.13;5033394;28;20029;-79
2022/01/23 07:50:17;;;;;;;44.40;24.42;;;;;;;-0.26;100.00;101040.28;5015661;28;20033;-80
2022/01/23 07:52:46;;;;;;;41.47;21.92;;;;;;;-0.20;100.00;101042.09;5028559;28;20028;-76
2022/01/23 07:55:14;;;;;;;33.97;17.70;;;;;;;-0.16;100.00;101062.69;5033483;28;20167;-77
2022/01/23 07:57:42;;;;;;;29.40;14.50;;;;;;;-0.17;100.00;101060.06;5020762;28;20021;-79
2022/01/23 08:00:10;;;;;;;25.63;13.50;;;;;;;-0.16;100.00;101056.69;5030494;28;20059;-80
2022/01/23 08:02:36;;;;;;;24.60;13.30;;;;;;;-0.10;100.00;101056.81;5053013;28;20029;-80
2022/01/23 08:05:03;;;;;;;24.98;14.32;;;;;;;0.05;100.00;101082.72;5053192;28;20029;-80
2022/01/23 08:10:04;;;;;;;25.67;15.27;;;;;;;0.09;100.00;101081.94;5053313;28;20037;-78
2022/01/23 08:12:31;;;;;;;27.00;15.38;;;;;;;0.06;100.00;101073.34;5052956;28;20025;-80
2022/01/23 08:14:58;;;;;;;24.05;14.90;;;;;;;0.15;100.00;101078.63;5051598;28;20029;-80
2022/01/23 08:17:24;;;;;;;25.88;14.35;;;;;;;0.16;100.00;101081.19;5052832;28;20032;-78
2022/01/23 08:19:59;;;;;;;26.08;14.70;;;;;;;0.26;100.00;101083.97;5051176;28;20037;-80
2022/01/23 08:22:27;;;;;;;33.13;18.83;;;;;;;0.41;100.00;101097.88;5051452;28;20031;-79
2022/01/23 08:24:54;;;;;;;52.35;29.35;;;;;;;0.40;100.00;101085.91;5052572;28;20033;-80
2022/01/23 08:27:20;;;;;;;57.53;32.40;;;;;;;0.51;100.00;101093.81;5051256;28;20021;-80
2022/01/23 08:29:45;;;;;;;56.10;30.50;;;;;;;0.58;100.00;101092.19;5052367;28;20039;-80
2022/01/23 08:32:11;;;;;;;51.90;28.65;;;;;;;0.68;100.00;101100.09;5052560;28;20469;-80
2022/01/23 08:34:38;;;;;;;51.13;28.27;;;;;;;0.67;100.00;101090.66;5050885;28;20135;-80
2022/01/23 08:37:05;;;;;;;51.13;29.25;;;;;;;0.69;100.00;101100.94;5049856;28;20343;-78
2022/01/23 08:39:34;;;;;;;51.17;31.58;;;;;;;0.62;100.00;101076.88;5049642;28;20399;-80
2022/01/23 08:42:00;;;;;;;54.15;32.55;;;;;;;0.81;100.00;101106.28;5033243;28;20536;-80
2022/01/23 08:44:28;;;;;;;57.85;34.25;;;;;;;0.86;100.00;101098.66;5033227;28;20033;-80
2022/01/23 08:46:54;;;;;;;67.43;36.15;;;;;;;0.84;100.00;101105.44;5049576;28;20140;-80
2022/01/23 08:49:22;;;;;;;75.47;37.33;;;;;;;0.88;100.00;101097.81;5033035;28;20418;-80
2022/01/23 08:51:49;;;;;;;68.05;38.45;;;;;;;0.94;100.00;101105.63;5049496;28;20439;-80
2022/01/23 08:54:15;;;;;;;80.38;41.90;;;;;;;1.05;100.00;101110.06;5050065;28;20036;-80
2022/01/23 08:56:41;;;;;;;88.32;43.95;;;;;;;1.10;100.00;101105.88;5049253;28;20078;-80
2022/01/23 08:59:06;;;;;;;71.13;38.40;;;;;;;1.13;100.00;101104.19;5049445;28;20051;-80
2022/01/23 09:01:33;;;;;;;84.28;39.47;;;;;;;1.08;100.00;101087.88;5029163;28;20033;-80
2022/01/23 09:03:59;;;;;;;84.15;40.92;;;;;;;1.17;100.00;101105.13;5029689;28;20044;-81
2022/01/23 09:06:24;;;;;;;89.00;44.65;;;;;;;1.16;100.00;101103.41;5013171;28;20033;-80
2022/01/23 09:08:52;;;;;;;102.65;49.35;;;;;;;1.22;100.00;101114.63;5029679;28;20092;-78
2022/01/23 09:14:10;;;;;;;168.23;78.00;;;;;;;1.33;100.00;101122.47;5009624;28;20042;-80
2022/01/23 09:16:40;;;;;;;146.77;73.72;;;;;;;1.32;100.00;101115.63;5009430;28;20593;-81
2022/01/23 09:19:07;;;;;;;107.53;56.20;;;;;;;1.41;100.00;101132.84;5007532;28;20045;-80
2022/01/23 09:21:34;;;;;;;71.40;38.10;;;;;;;1.33;100.00;101114.78;4983308;28;20065;-80
2022/01/23 09:24:00;;;;;;;65.85;34.30;;;;;;;1.32;100.00;101114.75;5001707;28;20026;-81
2022/01/23 09:26:26;;;;;;;75.47;39.42;;;;;;;1.34;100.00;101129.31;4990021;28;20093;-81
2022/01/23 09:28:55;;;;;;;57.33;32.55;;;;;;;1.36;100.00;101121.66;5002627;28;20062;-81
2022/01/23 09:34:10;;;;;;;55.08;28.33;;;;;;;1.42;100.00;101129.44;4970414;28;20478;-80
2022/01/23 09:36:35;;;;;;;47.20;24.60;;;;;;;1.42;100.00;101119.19;4970223;28;20042;-80
2022/01/23 09:39:01;;;;;;;42.95;23.80;;;;;;;1.59;100.00;101133.09;4970701;28;20552;-81
2022/01/23 09:41:29;;;;;;;46.53;25.40;;;;;;;1.67;100.00;101128.06;4970375;28;20073;-81
2022/01/23 09:43:55;;;;;;;46.97;24.35;;;;;;;1.74;100.00;101132.47;4953823;28;20042;-80
2022/01/23 09:46:24;;;;;;;45.10;24.63;;;;;;;1.84;100.00;101128.28;4970517;28;20064;-80
2022/01/23 09:48:52;;;;;;;49.13;24.50;;;;;;;1.89;100.00;101117.22;4970123;28;20039;-80
2022/01/23 09:51:23;;;;;;;42.17;24.17;;;;;;;1.95;100.00;101117.31;4966989;28;20129;-80
2022/01/23 09:53:53;;;;;;;56.40;31.48;;;;;;;2.03;100.00;101119.97;4978877;28;20109;-80
2022/01/23 09:56:30;;;;;;;51.60;29.20;;;;;;;2.08;100.00;101120.03;4954082;28;20061;-80
2022/01/23 09:58:58;;;;;;;49.42;28.23;;;;;;;2.07;100.00;101110.59;4969942;28;20051;-80
2022/01/23 10:01:31;;;;;;;57.90;30.67;;;;;;;2.14;100.00;101117.53;4970392;28;20058;-80
2022/01/23 10:03:57;;;;;;;52.70;29.75;;;;;;;2.18;100.00;101120.13;4969850;28;20046;-81
2022/01/23 10:06:22;;;;;;;53.83;27.98;;;;;;;2.21;100.00;101116.75;4954074;28;20039;-81
2022/01/23 10:08:49;;;;;;;54.85;28.85;;;;;;;2.23;100.00;101112.47;4953794;28;20034;-80
2022/01/23 10:11:16;;;;;;;49.35;27.00;;;;;;;2.33;100.00;101124.59;4951753;28;20038;-80
2022/01/23 10:13:43;;;;;;;53.00;28.75;;;;;;;2.18;100.00;101094.44;4953830;28;20038;-80
2022/01/23 10:16:12;;;;;;;52.00;28.15;;;;;;;2.38;100.00;101107.50;4948720;28;20462;-79
2022/01/23 10:18:39;;;;;;;49.35;27.27;;;;;;;2.51;100.00;101103.34;4969946;28;20426;-79
2022/01/23 10:21:10;;;;;;;50.00;28.83;;;;;;;2.57;100.00;101118.84;4970047;28;20043;-79
2022/01/23 10:23:37;;;;;;;55.17;32.58;;;;;;;2.52;100.00;101123.06;4970190;28;20039;-79
2022/01/23 10:26:05;;;;;;;63.80;38.65;;;;;;;2.49;100.00;101123.06;4970058;28;20035;-79
2022/01/23 10:28:42;;;;;;;68.07;38.33;;;;;;;2.38;100.00;101097.22;4966022;28;20449;-79
2022/01/23 10:31:08;;;;;;;72.20;38.72;;;;;;;2.47;100.00;101099.00;4983674;28;20576;-79
2022/01/23 10:33:35;;;;;;;48.55;30.95;;;;;;;2.52;100.00;101099.06;4992854;28;20038;-79
2022/01/23 10:36:09;;;;;;;45.83;26.63;;;;;;;2.62;100.00;101121.47;4990135;28;20088;-79
2022/01/23 10:38:57;;;;;;;44.33;27.27;;;;;;;2.69;100.00;101124.09;4992774;28;20042;-79
2022/01/23 10:42:01;;;;;;;48.00;28.25;;;;;;;2.75;100.00;101113.84;4996335;28;20068;-79
2022/01/23 10:50:06;;;;;;;36.92;22.83;;;;;;;2.74;100.00;101113.84;5002154;28;20033;-79
2022/01/23 10:52:45;;;;;;;29.17;18.90;;;;;;;2.82;100.00;101119.03;5032100;28;20045;-79
2022/01/23 10:55:10;;;;;;;30.48;17.98;;;;;;;2.86;100.00;101123.38;5032023;28;20025;-79
2022/01/23 10:57:43;;;;;;;27.02;16.80;;;;;;;2.80;100.00;101116.47;5032047;28;20104;-80
2022/01/23 11:00:21;;;;;;;23.75;16.25;;;;;;;2.64;100.00;101101.75;5015095;28;20611;-79
2022/01/23 11:02:48;;;;;;;27.45;18.08;;;;;;;2.68;100.00;101124.94;4972722;28;20050;-79
2022/01/23 11:05:17;;;;;;;118.55;70.13;;;;;;;2.60;100.00;101118.84;4973062;28;20427;-79
2022/01/23 11:07:45;;;;;;;109.68;56.38;;;;;;;2.57;100.00;101121.41;4972813;28;20491;-80
2022/01/23 11:10:22;;;;;;;136.32;65.38;;;;;;;2.55;100.00;101127.38;4978954;28;20034;-80
2022/01/23 11:18:09;;;;;;;59.40;32.47;;;;;;;2.40;100.00;101098.13;5011746;28;19947;-79
2022/01/23 11:20:40;;;;;;;120.47;58.17;;;;;;;2.47;100.00;101120.44;5011851;28;20440;-79
2022/01/23 11:23:23;;;;;;;107.97;54.13;;;;;;;2.51;100.00;101136.78;4995123;28;20045;-79
2022/01/23 11:25:51;;;;;;;59.08;32.53;;;;;;;2.46;100.00;101133.31;5011512;28;20087;-79
2022/01/23 11:28:21;;;;;;;18.50;14.13;;;;;;;2.43;100.00;101126.41;4978726;28;20421;-79
2022/01/23 11:30:57;;;;;;;23.17;16.65;;;;;;;2.32;100.00;101116.84;5011367;28;20065;-79
2022/01/23 11:33:26;;;;;;;33.95;22.27;;;;;;;2.31;100.00;101122.84;5018922;28;20045;-79
2022/01/23 11:35:53;;;;;;;48.83;28.83;;;;;;;2.28;100.00;101118.56;5034244;28;20105;-79
2022/01/23 11:38:24;;;;;;;59.78;36.17;;;;;;;2.33;100.00;101123.75;5033753;28;20032;-80
2022/01/23 11:54:50;;;;;;;40.20;27.73;;;;;;;2.18;100.00;101138.13;5010830;28;20037;-79
2022/01/23 11:57:34;;;;;;;45.22;27.33;;;;;;;2.24;100.00;101147.63;5010982;28;20030;-79
2022/01/23 12:00:03;;;;;;;36.75;25.60;;;;;;;2.21;100.00;101133.03;5008365;28;20060;-79
2022/01/23 12:02:36;;;;;;;38.53;24.90;;;;;;;2.17;100.00;101127.84;5011081;28;20030;-79
2022/01/23 12:05:18;;;;;;;45.55;30.50;;;;;;;2.27;100.00;101139.94;5010623;28;20030;-79
2022/01/23 12:08:05;;;;;;;50.60;33.17;;;;;;;2.22;100.00;101131.31;5010719;28;20034;-79
2022/01/23 12:10:48;;;;;;;49.42;35.03;;;;;;;2.23;100.00;101126.22;5010435;28;20034;-79
2022/01/23 12:19:45;;;;;;;50.08;36.60;;;;;;;2.35;100.00;101138.31;4990993;28;20038;-79
2022/01/23 12:22:37;;;;;;;61.40;40.92;;;;;;;2.35;100.00;101133.19;4913927;29;20484;-79
2022/01/23 12:25:09;;;;;;;59.20;39.20;;;;;;;2.27;100.00;101116.81;4914216;29;20035;-79
2022/01/23 12:27:36;;;;;;;59.92;40.25;;;;;;;2.33;100.00;101122.03;4913961;29;20487;-79
2022/01/23 12:30:30;;;;;;;56.58;37.75;;;;;;;2.44;100.00;101132.41;4913880;29;20492;-79
2022/01/23 12:33:16;;;;;;;55.72;38.03;;;;;;;2.33;100.00;101118.59;4913701;29;20079;-79
2022/01/23 12:35:46;;;;;;;63.20;43.55;;;;;;;2.37;100.00;101117.78;4929726;29;20095;-79
2022/01/23 12:38:13;;;;;;;72.18;49.55;;;;;;;2.42;100.00;101124.69;4913836;29;20032;-79
2022/01/23 12:40:45;;;;;;;69.82;46.42;;;;;;;2.46;100.00;101121.31;4913832;29;20040;-79
2022/01/23 12:43:25;;;;;;;63.92;41.75;;;;;;;2.46;100.00;101121.31;4928794;29;20040;-79
2022/01/23 12:46:08;;;;;;;71.68;47.00;;;;;;;2.44;100.00;101114.41;4898781;29;20051;-79
2022/01/23 12:48:43;;;;;;;94.25;58.75;;;;;;;2.62;100.00;101130.03;4913747;29;20100;-79
2022/01/23 12:51:17;;;;;;;104.65;61.30;;;;;;;2.74;100.00;101119.00;4913429;29;20052;-79
2022/01/23 12:53:48;;;;;;;84.85;52.00;;;;;;;2.75;100.00;101108.72;4942287;28;20039;-79
2022/01/23 12:56:19;;;;;;;65.50;42.22;;;;;;;2.63;100.00;101100.88;4951939;28;20034;-79
2022/01/23 12:59:14;;;;;;;49.58;34.15;;;;;;;2.69;100.00;101108.66;4989907;28;20172;-79
2022/01/23 13:01:45;;;;;;;43.53;28.38;;;;;;;2.69;100.00;101111.22;4989886;28;20038;-79
2022/01/23 13:04:12;;;;;;;41.17;26.92;;;;;;;2.61;100.00;101091.41;4990117;28;20038;-79
2022/01/23 13:06:52;;;;;;;49.70;32.10;;;;;;;2.74;100.00;101114.72;5018971;28;20050;-79
2022/01/23 13:09:52;;;;;;;59.30;33.97;;;;;;;2.46;100.00;101075.00;5013129;28;20079;-79
2022/01/23 13:32:45;;;;;;;44.88;24.73;;;;;;;2.73;100.00;101138.69;4993241;28;20461;-79
2022/01/23 13:35:15;;;;;;;44.03;24.73;;;;;;;2.57;100.00;101113.72;4954450;28;20494;-79
2022/01/23 13:37:44;;;;;;;58.92;33.08;;;;;;;2.73;100.00;101133.56;4965909;28;20031;-79
2022/01/23 13:40:24;;;;;;;54.67;32.03;;;;;;;2.69;100.00;101123.22;4970353;28;20035;-79
2022/01/23 14:00:00;;;;;;;53.67;33.55;;;;;;;2.74;100.00;101135.31;4890345;29;20096;-79
2022/01/23 14:02:42;;;;;;;50.03;31.85;;;;;;;2.74;100.00;101143.03;4856606;29;20145;-79
2022/01/23 14:05:11;;;;;;;43.33;28.13;;;;;;;2.68;100.00;101140.38;4856966;29;20045;-79
2022/01/23 14:07:39;;;;;;;36.20;22.70;;;;;;;2.65;100.00;101136.91;4845046;29;20064;-79
2022/01/23 14:10:25;;;;;;;41.78;25.55;;;;;;;2.70;100.00;101155.84;4860170;29;20052;-79
2022/01/23 14:13:04;;;;;;;38.70;23.65;;;;;;;2.66;100.00;101157.50;4914047;29;20148;-81
2022/01/23 14:15:31;;;;;;;38.38;23.85;;;;;;;2.56;100.00;101147.97;4916586;29;20074;-81
2022/01/23 14:18:04;;;;;;;37.88;22.85;;;;;;;2.65;100.00;101165.19;4916124;29;20064;-81
2022/01/23 14:20:32;;;;;;;43.03;26.15;;;;;;;2.51;100.00;101149.63;4916490;29;20048;-80
2022/01/23 14:23:30;;;;;;;35.13;22.17;;;;;;;2.59;100.00;101163.44;4912371;29;20377;-80
2022/01/23 14:26:06;;;;;;;46.38;28.60;;;;;;;2.57;100.00;101175.44;4869828;29;20075;-80
2022/01/23 14:28:50;;;;;;;43.28;28.17;;;;;;;2.42;100.00;101157.25;4940122;29;20047;-80
2022/01/23 14:31:25;;;;;;;37.00;22.92;;;;;;;2.42;100.00;101158.13;4993551;28;20057;-80
2022/01/23 14:33:57;;;;;;;46.75;31.65;;;;;;;2.49;100.00;101180.50;5010432;28;20445;-82
2022/01/23 14:36:39;;;;;;;70.65;43.70;;;;;;;2.41;100.00;101178.69;4967292;28;20022;-82
2022/01/23 14:39:09;;;;;;;47.22;31.60;;;;;;;2.45;100.00;101190.72;4973135;28;20129;-81
2022/01/23 14:41:42;;;;;;;55.58;35.53;;;;;;;2.43;100.00;101188.13;4957256;28;20039;-81
2022/01/23 14:44:27;;;;;;;91.65;53.40;;;;;;;2.30;100.00;101164.84;4973074;28;20086;-82
2022/01/23 14:46:57;;;;;;;89.60;55.00;;;;;;;2.30;100.00;101170.84;4957219;28;20125;-81
2022/01/23 14:49:27;;;;;;;65.53;44.97;;;;;;;2.20;100.00;101164.72;4973234;28;20070;-81
2022/01/23 14:51:55;;;;;;;74.10;51.17;;;;;;;2.31;100.00;101180.25;4957488;28;20320;-82
2022/01/23 14:54:24;;;;;;;147.00;85.97;;;;;;;2.20;100.00;101166.44;4896881;29;20064;-82
2022/01/23 14:56:49;;;;;;;133.63;75.63;;;;;;;2.12;100.00;101153.50;4896696;29;20048;-82